Airfield :
LOGIN :

Register | Disclaimer

   EN    FR    IT 

 










Legend :    VFR   Marginal VFR   IFR   Intensive IFR   Very Intensive IFR
Visi :
Ceiling :
>= 8 km
>= 3000ft
5 to 8 km
1000 to 3000 ft
1500m to 5 km
500 to 1000 ft
800 to 1500m
200 to 500 ft
< 800m
< 200 ft
Symbols :   Thunderstorms  Fog  Heavy snow  Heavy precipitations  Wind > 20 kt
SIGMETs :     Misc.  Thunderstorms  Icing  Turbulence  Mountain Waves  Volcanic Ashes






- Airport Elevation : 141 ft
- IATA code : TGD


LYPG - Podgorica - Montenegro

CURRENT METAR :
  • 200730Z VRB02KT CAVOK 22/M00 Q1027 NOSIG

EXPIRED METARs :
  • 200700Z VRB02KT CAVOK 22/M01 Q1027 NOSIG
  • 200630Z 02003KT CAVOK 20/M01 Q1027 NOSIG
  • 200600Z 34005KT 300V040 CAVOK 20/M00 Q1027 NOSIG
  • 200530Z 01003KT 300V050 CAVOK 18/01 Q1027 NOSIG
  • 200500Z VRB01KT CAVOK 17/02 Q1027 NOSIG

TAF TAF LYPG
Valid from the 20 at 06:00 until the 21 at 06:00 UTC


200500Z 2006/2106 17006KT CAVOK TX29/2014Z TN13/2103Z



MET'MAP, your aeronautical weather chart ! - Copyright ORBIFLY December 2007 - Disclaimer

ORBIFLY MET'MAP TEAM :

Programming & Development : Alexandra Zaïnal
Original concept : Baudouin d'Aumeries
Technical & hardware support : Manuel Goepfert
Assistance : Marc-Olivier Méhu

Contact : metmap@orbifly.com




SOURCES & CREDITS :

   NOAA